Otay Mesa Border Station Data

Red Flag Warning: No
Fire Weather Zone: 243
SDGE Region: Metro
Lat/Lon: 32.558/-116.9

Observations

Time Wind Speed/Gust Temp(F) RH Fuel Moist Fuel Temp(F) Dewpt(F) Tmax(F) Tmin(F) Accum Precip 10-min Precip SL Press(mb)
3/29 8:00am 279 3 G 4 55° 51% - - 38° 58.2° 49.2° - - -
3/29 7:50am 293 3 G 4 54° 48% - - 35° 58.2° 49.2° - - -
3/29 7:40am 322 3 G 4 53° 51% - - 36° 58.2° 49.2° - - -
3/29 7:30am 3 1 G 2 52° 53% - - 35° 58.2° 49.2° - - -
3/29 7:20am 333 1 G 2 51° 55% - - 35° 58.2° 49.2° - - -
3/29 7:10am 330 3 G 4 52° 53% - - 35° 58.2° 49.2° - - -
3/29 7:00am 48 5 G 7 51° 54% - - 35° 58.2° 49.2° - - -
3/29 6:50am 40 2 G 6 52° 53% - - 35° 58.2° 49.2° - - -
3/29 6:40am 347 2 G 4 51° 54% - - 35° 58.2° 49.2° - - -
3/29 6:30am 314 3 G 4 51° 57% - - 37° 58.2° 49.2° - - -
3/29 6:20am 18 2 G 3 52° 58% - - 38° 58.2° 49.2° - - -
3/29 6:10am 31 3 G 5 51° 63% - - 39° 58.2° 49.2° - - -
3/29 5:50am 291 3 G 5 52° 60% - - 39° 58.2° 49.4° - - -
3/29 5:40am 19 2 G 4 55° 48% - - 36° 58.2° 49.4° - - -
3/29 5:30am 36 4 G 4 55° 51% - - 37° 58.2° 49.4° - - -
3/29 5:20am 37 3 G 4 51° 64% - - 39° 58.2° 49.4° - - -
3/29 5:10am 37 0 G 2 51° 62% - - 38° 58.2° 49.8° - - -
3/29 5:00am 49 4 G 5 56° 51% - - 38° 58.2° 49.9° - - -
3/29 4:50am 28 4 G 5 54° 58% - - 40° 58.2° 49.9° - - -
3/29 4:40am 28 4 G 6 54° 60% - - 40° 58.2° 49.9° - - -
3/29 4:30am 26 4 G 5 52° 66% - - 41° 58.2° 49.9° - - -
3/29 4:20am 53 2 G 4 52° 66% - - 41° 58.2° 49.9° - - -
3/29 4:10am 11 1 G 3 54° 64% - - 42° 58.2° 49.9° - - -
3/29 4:00am 319 3 G 4 54° 66% - - 42° 58.2° 49.9° - - -
3/29 3:50am 296 2 G 4 53° 67% - - 42° 58.2° 49.9° - - -
3/29 3:40am 307 3 G 5 51° 70% - - 42° 58.2° 49.9° - - -
3/29 3:30am 10 3 G 6 55° 63% - - 42° 58.2° 49.9° - - -
3/29 3:20am 31 6 G 7 55° 62% - - 42° 58.2° 49.9° - - -
3/29 3:10am 55 2 G 4 55° 62% - - 42° 58.2° 49.9° - - -
3/29 3:00am 31 3 G 5 54° 63% - - 42° 58.2° 49.9° - - -
3/29 2:50am 23 3 G 5 54° 66% - - 42° 58.2° 49.9° - - -
3/29 2:40am 352 1 G 3 53° 67% - - 43° 58.2° 49.9° - - -
3/29 2:30am 4 2 G 4 53° 68% - - 42° 58.2° 49.9° - - -
3/29 2:20am 320 2 G 3 53° 66% - - 42° 58.2° 49.9° - - -
3/29 2:10am 61 3 G 4 56° 60% - - 42° 58.2° 49.9° - - -
3/29 2:00am 47 4 G 5 55° 61% - - 42° 58.2° 49.9° - - -
3/29 1:50am 35 3 G 3 54° 63% - - 42° 58.2° 49.9° - - -
3/29 1:40am 40 2 G 4 53° 68% - - 43° 58.2° 49.9° - - -
3/29 1:30am 25 1 G 4 51° 70% - - 42° 58.2° 49.9° - - -
3/29 1:20am 359 1 G 3 51° 70% - - 41° 58.2° 49.9° - - -
3/29 1:10am 33 2 G 3 55° 59% - - 41° 58.2° 52° - - -
3/29 1:00am 21 4 G 5 56° 55% - - 40° 58.2° 54.3° - - -
3/29 12:50am 43 4 G 4 56° 58% - - 41° 58.2° 54.3° - - -
3/29 12:40am 69 1 G 4 57° 55% - - 41° 58.2° 54.8° - - -
3/29 12:30am 36 2 G 4 57° 54% - - 41° 58.2° 54.8° - - -
3/29 12:20am 14 3 G 4 55° 58% - - 41° 56.4° 54.8° - - -
3/29 12:10am 25 2 G 4 56° 56% - - 40° 56.4° 54.9° - - -
3/29 12:00am 29 3 G 4 57° 52% - - 40° 71.5° 46.3° - - -
3/28 11:50pm 34 3 G 4 57° 54% - - 40° 71.5° 46.3° - - -
3/28 11:40pm 87 3 G 5 58° 54% - - 41° 71.5° 46.3° - - -
3/28 11:30pm 63 3 G 5 58° 51% - - 40° 71.5° 46.3° - - -
3/28 11:20pm 33 3 G 4 57° 58% - - 42° 71.5° 46.3° - - -
3/28 11:10pm 38 3 G 5 57° 57% - - 42° 71.5° 46.3° - - -
3/28 11:00pm 29 3 G 6 57° 63% - - 44° 71.5° 46.3° - - -
3/28 10:50pm 32 5 G 7 57° 58% - - 42° 71.5° 46.3° - - -
3/28 10:40pm 39 4 G 6 58° 55% - - 42° 71.5° 46.3° - - -
3/28 10:30pm 54 4 G 5 58° 52% - - 40° 71.5° 46.3° - - -
3/28 10:20pm 46 4 G 5 58° 58% - - 44° 71.5° 46.3° - - -
3/28 10:10pm 41 4 G 6 58° 61% - - 44° 71.5° 46.3° - - -
3/28 10:00pm 56 4 G 7 59° 59% - - 44° 71.5° 46.3° - - -
3/28 9:50pm 39 2 G 5 58° 62% - - 45° 71.5° 46.3° - - -
3/28 9:40pm 67 1 G 3 59° 60% - - 45° 71.5° 46.3° - - -
3/28 9:30pm 64 4 G 5 58° 63% - - 46° 71.5° 46.3° - - -
3/28 9:20pm 89 1 G 3 58° 64% - - 46° 71.5° 46.3° - - -
3/28 9:10pm 62 4 G 6 58° 64% - - 46° 71.5° 46.3° - - -
3/28 9:00pm 103 4 G 7 60° 59% - - 46° 71.5° 46.3° - - -
3/28 8:50pm 62 4 G 7 57° 64% - - 45° 71.5° 46.3° - - -
3/28 8:40pm 37 1 G 3 57° 64% - - 45° 71.5° 46.3° - - -
3/28 8:30pm 332 4 G 7 60° 60% - - 46° 71.5° 46.3° - - -
3/28 8:20pm 322 4 G 6 59° 63% - - 46° 71.5° 46.3° - - -
3/28 8:10pm 354 3 G 4 58° 65% - - 47° 71.5° 46.3° - - -
3/28 8:00pm 12 4 G 6 57° 68% - - 47° 71.5° 46.3° - - -
3/28 7:50pm 15 3 G 5 58° 66% - - 46° 71.5° 46.3° - - -
3/28 7:40pm 6 3 G 4 59° 62% - - 46° 71.5° 46.3° - - -
3/28 7:30pm 333 4 G 5 61° 59% - - 47° 71.5° 46.3° - - -
3/28 7:20pm 333 5 G 6 61° 60% - - 47° 71.5° 46.3° - - -
3/28 7:10pm 326 5 G 6 61° 60% - - 47° 71.5° 46.3° - - -
3/28 7:00pm 326 4 G 5 60° 61% - - 47° 71.5° 46.3° - - -
3/28 6:50pm 303 5 G 9 61° 59% - - 47° 71.5° 46.3° - - -
3/28 6:40pm 303 6 G 9 62° 58% - - 47° 71.5° 46.3° - - -
3/28 6:30pm 295 7 G 10 63° 55% - - 46° 71.5° 46.3° - - -
3/28 6:20pm 297 8 G 12 63° 53% - - 46° 71.5° 46.3° - - -
3/28 6:10pm 291 8 G 12 64° 51% - - 46° 71.5° 46.3° - - -
3/28 6:00pm 292 9 G 12 65° 48% - - 45° 71.5° 46.3° - - -
3/28 5:50pm 294 9 G 12 65° 43% - - 42° 71.5° 46.3° - - -
3/28 5:40pm 293 10 G 13 66° 37% - - 38° 71.5° 46.3° - - -
3/28 5:30pm 286 9 G 13 66° 38% - - 40° 71.5° 46.3° - - -
3/28 5:20pm 290 10 G 13 66° 39% - - 41° 71.5° 46.3° - - -
3/28 5:10pm 292 9 G 12 67° 39% - - 41° 71.5° 46.3° - - -
3/28 5:00pm 293 10 G 14 67° 38% - - 41° 71.5° 46.3° - - -
3/28 4:50pm 292 9 G 13 67° 37% - - 40° 71.5° 46.3° - - -
3/28 4:40pm 290 9 G 13 68° 39% - - 42° 71.5° 46.3° - - -
3/28 4:30pm 290 9 G 13 67° 39% - - 42° 71.5° 46.3° - - -
3/28 4:20pm 290 10 G 14 67° 41% - - 43° 71.5° 46.3° - - -
3/28 4:10pm 281 10 G 16 68° 41% - - 43° 71.5° 46.3° - - -
3/28 4:00pm 285 9 G 12 68° 43% - - 44° 71.5° 46.3° - - -
3/28 3:50pm 293 9 G 14 68° 42% - - 44° 71.5° 46.3° - - -
3/28 3:40pm 295 10 G 15 67° 43% - - 44° 71.5° 46.3° - - -
3/28 3:30pm 299 9 G 14 68° 44% - - 45° 71.5° 46.3° - - -
3/28 3:20pm 292 9 G 15 68° 48% - - 47° 71.5° 46.3° - - -
3/28 3:10pm 291 10 G 16 68° 50% - - 49° 71.5° 46.3° - - -
3/28 3:00pm 299 9 G 14 68° 48% - - 48° 71.5° 46.3° - - -
3/28 2:50pm 298 8 G 12 68° 48% - - 48° 71.5° 46.3° - - -
3/28 2:40pm 285 9 G 15 67° 51% - - 49° 71.5° 46.3° - - -
3/28 2:30pm 295 10 G 15 68° 51% - - 50° 71.5° 46.3° - - -
3/28 2:20pm 280 10 G 15 69° 47% - - 48° 71.5° 46.3° - - -
3/28 2:10pm 300 8 G 12 69° 46% - - 47° 71.5° 46.3° - - -
3/28 2:00pm 300 9 G 14 69° 48% - - 48° 71.5° 46.3° - - -
3/28 1:50pm 289 7 G 12 69° 45% - - 47° 71.5° 46.3° - - -
3/28 1:40pm 313 6 G 11 70° 43% - - 47° 71.5° 46.3° - - -
3/28 1:30pm 284 6 G 13 70° 40% - - 45° 71.5° 46.3° - - -
3/28 1:20pm 301 9 G 14 70° 42% - - 46° 71.5° 46.3° - - -
3/28 1:10pm 285 8 G 14 70° 43% - - 46° 71.5° 46.3° - - -
3/28 1:00pm 276 5 G 11 70° 40% - - 45° 71.5° 46.3° - - -
3/28 12:50pm 293 6 G 11 69° 38% - - 43° 70.6° 46.3° - - -
3/28 12:40pm 323 6 G 13 70° 33% - - 40° 70.6° 46.3° - - -
3/28 12:30pm 330 6 G 11 69° 35% - - 41° 70.3° 46.3° - - -
3/28 12:20pm 337 6 G 10 69° 33% - - 39° 70.3° 46.3° - - -
3/28 12:10pm 303 7 G 11 68° 39% - - 42° 69.1° 46.3° - - -
3/28 12:00pm 290 9 G 13 68° 42% - - 44° 68.4° 46.3° - - -
3/28 11:50am 309 7 G 11 67° 42% - - 43° 68.2° 46.3° - - -
3/28 11:40am 297 5 G 10 67° 46% - - 45° 67.9° 46.3° - - -
3/28 11:30am 292 6 G 10 66° 49% - - 47° 67.5° 46.3° - - -
3/28 11:20am 295 6 G 11 66° 49% - - 46° 67.1° 46.3° - - -
3/28 11:10am 288 5 G 10 65° 50% - - 46° 65.6° 46.3° - - -
3/28 11:00am 302 6 G 10 65° 50% - - 45° 65.3° 46.3° - - -
3/28 10:50am 303 5 G 8 64° 51% - - 45° 65° 46.3° - - -
3/28 10:40am 290 3 G 8 64° 51% - - 46° 65° 46.3° - - -
3/28 10:30am 347 2 G 5 64° 53% - - 46° 64.7° 46.3° - - -
3/28 10:20am 284 2 G 5 63° 54% - - 46° 63.4° 46.3° - - -
3/28 10:10am 216 3 G 6 62° 54% - - 45° 63° 46.3° - - -
3/28 10:00am 313 2 G 5 61° 56% - - 45° 62.1° 46.3° - - -
3/28 9:50am 276 2 G 5 60° 58% - - 45° 61.1° 46.3° - - -
3/28 9:40am 281 3 G 6 60° 60% - - 46° 60.8° 46.3° - - -
3/28 9:30am 310 2 G 5 59° 59% - - 45° 60.8° 46.3° - - -
3/28 9:20am 321 3 G 5 58° 63% - - 45° 60.8° 46.3° - - -
3/28 9:10am 271 1 G 4 59° 62% - - 46° 60.8° 46.3° - - -
3/28 9:00am 21 1 G 2 57° 66% - - 46° 58.1° 46.3° - - -
3/28 8:50am 256 1 G 2 56° 69% - - 46° 57.7° 46.3° - - -
3/28 8:40am 222 2 G 4 56° 71% - - 47° 57.7° 46.3° - - -
3/28 8:30am 128 1 G 3 56° 76% - - 48° 57.3° 46.3° - - -
3/28 8:20am 244 2 G 4 53° 81% - - 47° 54.8° 46.3° - - -
3/28 8:10am 298 2 G 4 53° 84% - - 48° 54.8° 46.3° - - -
3/28 8:00am 312 3 G 4 52° 89% - - 48° 54.8° 46.3° - - -
3/28 7:50am 282 1 G 2 51° 89% - - 48° 54.8° 46.3° - - -
3/28 7:40am 123 3 G 4 50° 89% - - 47° 54.8° 46.3° - - -
3/28 7:30am 51 4 G 7 49° 91% - - 47° 54.8° 46.3° - - -
3/28 7:20am 24 5 G 8 49° 91% - - 46° 54.8° 46.3° - - -
3/28 7:10am 221 2 G 3 50° 90% - - 47° 54.8° 46.3° - - -
3/28 7:00am 75 4 G 5 49° 91% - - 47° 54.8° 46.3° - - -
3/28 6:50am 289 1 G 4 49° 91% - - 47° 54.8° 46.3° - - -
3/28 6:40am 28 2 G 4 48° 92% - - 46° 54.8° 46.3° - - -
3/28 6:30am 42 5 G 6 49° 93% - - 47° 54.8° 46.3° - - -
3/28 6:20am 20 2 G 5 47° 92% - - 45° 54.8° 46.3° - - -
3/28 6:10am 328 2 G 4 49° 91% - - 47° 54.8° 48.3° - - -
3/28 6:00am 18 1 G 4 50° 91% - - 47° 54.8° 48.4° - - -
3/28 5:50am 351 2 G 3 49° 91% - - 47° 54.8° 49° - - -